Time;durP1;ratioP1;P1;durP2;ratioP2;P2;SDS_P1;SDS_P2;PMS_P1;PMS_P2;Temp;Humidity;BMP_temperature;BMP_pressure;BME280_temperature;BME280_humidity;BME280_pressure;Samples;Min_cycle;Max_cycle;Signal;HPM_P1;HPM_P2
2021/10/28 00:13:49;;;;;;;9.30;3.33;;;;;;;;;;5119301;28;20422;-72
2021/10/28 00:16:21;;;;;;;12.10;4.60;;;;;;;;;;5119635;28;20735;-72
2021/10/28 00:18:55;;;;;;;4.37;3.63;;;;;;;;;;5119359;28;20890;-71
2021/10/28 00:21:23;;;;;;;7.07;5.40;;;;;;;;;;5120014;28;20481;-71
2021/10/28 00:23:58;;;;;;;7.07;4.57;;;;;;;;;;5119448;28;20516;-72
2021/10/28 00:26:27;;;;;;;5.90;4.07;;;;;;;;;;5119247;28;20871;-71
2021/10/28 00:28:59;;;;;;;8.30;4.27;;;;;;;;;;5119348;28;20459;-71
2021/10/28 00:31:27;;;;;;;9.00;5.13;;;;;;;;;;5119314;28;20478;-71
2021/10/28 00:33:55;;;;;;;8.00;4.77;;;;;;;;;;5118964;28;20490;-71
2021/10/28 00:36:24;;;;;;;7.23;4.57;;;;;;;;;;5119282;28;20457;-71
2021/10/28 00:38:54;;;;;;;10.43;4.70;;;;;;;;;;5118700;28;20466;-72
2021/10/28 00:41:22;;;;;;;5.30;4.27;;;;;;;;;;5118720;28;20451;-72
2021/10/28 00:43:54;;;;;;;7.33;4.40;;;;;;;;;;5119334;28;20451;-70
2021/10/28 00:46:23;;;;;;;5.83;4.33;;;;;;;;;;5118899;28;20838;-72
2021/10/28 00:48:51;;;;;;;7.77;5.40;;;;;;;;;;5104148;28;20533;-71
2021/10/28 00:51:21;;;;;;;5.70;4.53;;;;;;;;;;5098396;28;20511;-71
2021/10/28 00:53:50;;;;;;;10.93;5.43;;;;;;;;;;5098074;28;20444;-71
2021/10/28 00:56:19;;;;;;;8.80;4.90;;;;;;;;;;5099237;28;20783;-71
2021/10/28 00:58:48;;;;;;;5.73;4.07;;;;;;;;;;5098530;28;20548;-72
2021/10/28 01:01:16;;;;;;;6.30;4.70;;;;;;;;;;5098096;28;20506;-71
2021/10/28 01:03:44;;;;;;;6.70;4.60;;;;;;;;;;5098145;28;20447;-71
2021/10/28 01:06:13;;;;;;;8.50;5.73;;;;;;;;;;5098401;28;20686;-73
2021/10/28 01:08:44;;;;;;;5.93;4.10;;;;;;;;;;5098214;28;20451;-71
2021/10/28 01:11:12;;;;;;;6.50;4.13;;;;;;;;;;5098279;28;20783;-71
2021/10/28 01:13:42;;;;;;;5.57;4.30;;;;;;;;;;5098445;28;20953;-71
2021/10/28 01:16:10;;;;;;;6.30;5.00;;;;;;;;;;5097857;28;20470;-71
2021/10/28 01:18:39;;;;;;;7.70;5.50;;;;;;;;;;5098251;28;20513;-72
2021/10/28 01:21:13;;;;;;;8.13;4.33;;;;;;;;;;5096650;28;20567;-71
2021/10/28 01:23:41;;;;;;;6.10;4.40;;;;;;;;;;5111630;28;20788;-72
2021/10/28 01:26:10;;;;;;;6.70;4.73;;;;;;;;;;5118342;28;20859;-72
2021/10/28 01:28:39;;;;;;;6.30;4.67;;;;;;;;;;5117853;28;20485;-72
2021/10/28 01:31:08;;;;;;;5.97;4.30;;;;;;;;;;5118020;28;20483;-72
2021/10/28 01:33:38;;;;;;;9.00;5.37;;;;;;;;;;5117940;28;20446;-72
2021/10/28 01:36:06;;;;;;;6.10;4.57;;;;;;;;;;5117621;28;20434;-71
2021/10/28 01:38:38;;;;;;;8.40;5.10;;;;;;;;;;5117681;28;20485;-72
2021/10/28 01:41:06;;;;;;;8.40;4.63;;;;;;;;;;5118515;28;20567;-72
2021/10/28 01:43:36;;;;;;;6.00;4.57;;;;;;;;;;5117796;28;20457;-72
2021/10/28 01:46:05;;;;;;;9.80;4.87;;;;;;;;;;5117888;28;20977;-72
2021/10/28 01:48:33;;;;;;;7.70;4.40;;;;;;;;;;5118401;27;20451;-72
2021/10/28 01:51:01;;;;;;;7.87;4.80;;;;;;;;;;5118704;28;20866;-72
2021/10/28 01:53:30;;;;;;;6.30;4.83;;;;;;;;;;5118573;28;20458;-71
2021/10/28 01:56:00;;;;;;;7.73;4.37;;;;;;;;;;5118737;28;20450;-71
2021/10/28 01:58:28;;;;;;;7.70;4.67;;;;;;;;;;5117840;28;20447;-71
2021/10/28 02:00:56;;;;;;;6.40;5.20;;;;;;;;;;5118153;28;20929;-71
2021/10/28 02:03:24;;;;;;;8.10;5.80;;;;;;;;;;5117491;28;20450;-71
2021/10/28 02:05:53;;;;;;;9.10;4.53;;;;;;;;;;5117080;28;20467;-71
2021/10/28 02:08:26;;;;;;;7.40;4.47;;;;;;;;;;5117437;28;20450;-71
2021/10/28 02:10:54;;;;;;;7.57;5.00;;;;;;;;;;5116443;28;20455;-71
2021/10/28 02:13:24;;;;;;;7.60;4.73;;;;;;;;;;5116817;28;20504;-71
2021/10/28 02:15:52;;;;;;;6.57;4.63;;;;;;;;;;5117288;28;20883;-71
2021/10/28 02:18:21;;;;;;;9.00;5.20;;;;;;;;;;5116820;28;20551;-71
2021/10/28 02:20:49;;;;;;;8.17;4.90;;;;;;;;;;5117446;28;20742;-73
2021/10/28 02:23:17;;;;;;;9.10;5.30;;;;;;;;;;5116784;28;21054;-72
2021/10/28 02:25:45;;;;;;;5.90;3.90;;;;;;;;;;5117027;28;20490;-71
2021/10/28 02:28:14;;;;;;;7.70;4.80;;;;;;;;;;5116833;28;20482;-72
2021/10/28 02:30:43;;;;;;;6.70;4.10;;;;;;;;;;5116831;28;20870;-72
2021/10/28 02:33:12;;;;;;;8.83;5.00;;;;;;;;;;5116767;28;20812;-72
2021/10/28 02:35:40;;;;;;;8.80;5.20;;;;;;;;;;5116547;28;20458;-72
2021/10/28 02:38:08;;;;;;;8.47;4.43;;;;;;;;;;5116518;28;20462;-72
2021/10/28 02:40:36;;;;;;;8.10;5.67;;;;;;;;;;5116998;28;20482;-72
2021/10/28 02:43:04;;;;;;;9.13;4.80;;;;;;;;;;5116089;28;20507;-72
2021/10/28 02:45:32;;;;;;;8.43;5.90;;;;;;;;;;5116903;28;20929;-72
2021/10/28 02:48:02;;;;;;;8.57;5.00;;;;;;;;;;5116811;28;20511;-71
2021/10/28 02:50:30;;;;;;;9.40;4.80;;;;;;;;;;5116945;28;20455;-72
2021/10/28 02:52:58;;;;;;;8.50;5.10;;;;;;;;;;5117132;28;20451;-72
2021/10/28 02:55:27;;;;;;;6.93;5.10;;;;;;;;;;5116956;28;20724;-72
2021/10/28 02:57:55;;;;;;;6.73;4.90;;;;;;;;;;5116744;28;20519;-72
2021/10/28 03:00:23;;;;;;;7.03;5.33;;;;;;;;;;5117165;28;20577;-72
2021/10/28 03:02:51;;;;;;;13.33;5.87;;;;;;;;;;5116873;28;21080;-72
2021/10/28 03:05:21;;;;;;;8.90;5.60;;;;;;;;;;5117525;28;20477;-72
2021/10/28 03:07:49;;;;;;;10.53;5.40;;;;;;;;;;5116706;28;20450;-73
2021/10/28 03:10:17;;;;;;;8.87;5.03;;;;;;;;;;5116300;28;20761;-72
2021/10/28 03:12:47;;;;;;;8.10;5.00;;;;;;;;;;5116397;28;20486;-72
2021/10/28 03:15:15;;;;;;;11.60;5.07;;;;;;;;;;5116777;28;20454;-72
2021/10/28 03:18:06;;;;;;;9.60;4.90;;;;;;;;;;5116717;28;20467;-72
2021/10/28 03:26:21;;;;;;;7.73;5.00;;;;;;;;;;5073678;28;20459;-73
2021/10/28 03:28:49;;;;;;;10.03;5.87;;;;;;;;;;5097983;28;20737;-72
2021/10/28 03:31:18;;;;;;;8.63;5.43;;;;;;;;;;5116557;28;20909;-72
2021/10/28 03:33:49;;;;;;;11.70;5.57;;;;;;;;;;5115993;28;20443;-72
2021/10/28 03:36:28;;;;;;;11.73;5.47;;;;;;;;;;5117085;28;20446;-72
2021/10/28 03:39:08;;;;;;;9.63;6.40;;;;;;;;;;5113673;28;20450;-72
2021/10/28 03:42:16;;;;;;;8.10;5.53;;;;;;;;;;5095016;28;20483;-72
2021/10/28 03:59:05;;;;;;;8.80;5.60;;;;;;;;;;5133871;27;20443;-73
2021/10/28 04:02:10;;;;;;;10.50;7.80;;;;;;;;;;5133264;28;20460;-73
2021/10/28 04:07:49;;;;;;;7.20;5.63;;;;;;;;;;5100288;27;20437;-72
2021/10/28 04:29:51;;;;;;;11.30;5.90;;;;;;;;;;5102619;28;20882;-72
2021/10/28 04:32:22;;;;;;;9.43;6.03;;;;;;;;;;5115305;28;20446;-72
2021/10/28 04:34:50;;;;;;;9.03;5.60;;;;;;;;;;5113859;28;20458;-72
2021/10/28 04:37:21;;;;;;;10.37;6.57;;;;;;;;;;5114160;28;20712;-72
2021/10/28 04:39:49;;;;;;;9.77;6.30;;;;;;;;;;5112970;28;20581;-72
2021/10/28 04:42:17;;;;;;;7.83;5.70;;;;;;;;;;5112697;28;20558;-72
2021/10/28 04:44:46;;;;;;;11.53;6.40;;;;;;;;;;5112715;28;20758;-72
2021/10/28 04:47:14;;;;;;;10.83;7.37;;;;;;;;;;5112834;28;20490;-72
2021/10/28 04:49:45;;;;;;;9.87;6.80;;;;;;;;;;5113933;28;20870;-73
2021/10/28 04:52:13;;;;;;;9.87;6.67;;;;;;;;;;5113257;28;20442;-72
2021/10/28 04:54:43;;;;;;;10.20;6.47;;;;;;;;;;5112360;28;20516;-72
2021/10/28 04:57:11;;;;;;;12.50;7.07;;;;;;;;;;5112277;28;20443;-72
2021/10/28 04:59:39;;;;;;;12.50;7.93;;;;;;;;;;5112342;28;20482;-71
2021/10/28 05:02:12;;;;;;;17.13;7.03;;;;;;;;;;5112585;28;20458;-72
2021/10/28 05:04:40;;;;;;;14.00;6.77;;;;;;;;;;5112792;28;20459;-73
2021/10/28 05:07:08;;;;;;;8.67;6.63;;;;;;;;;;5112269;28;20462;-72
2021/10/28 05:09:40;;;;;;;11.03;7.97;;;;;;;;;;5110764;28;20847;-72
2021/10/28 05:12:10;;;;;;;12.80;8.33;;;;;;;;;;5112155;28;20459;-72
2021/10/28 05:14:41;;;;;;;11.93;7.07;;;;;;;;;;5112055;28;20524;-72
2021/10/28 05:17:09;;;;;;;10.30;7.77;;;;;;;;;;5111960;28;20550;-72
2021/10/28 05:19:38;;;;;;;15.73;8.27;;;;;;;;;;5112721;28;20494;-72
2021/10/28 05:22:07;;;;;;;13.70;7.97;;;;;;;;;;5112896;28;20459;-72
2021/10/28 05:24:35;;;;;;;13.50;8.37;;;;;;;;;;5113235;28;20451;-72
2021/10/28 05:27:09;;;;;;;13.93;7.97;;;;;;;;;;5112913;28;20494;-72
2021/10/28 05:29:39;;;;;;;11.60;7.70;;;;;;;;;;5112458;28;20891;-72
2021/10/28 05:32:07;;;;;;;12.50;7.90;;;;;;;;;;5102775;28;20483;-73
2021/10/28 05:34:37;;;;;;;11.40;7.43;;;;;;;;;;5098557;28;20525;-73
2021/10/28 05:37:05;;;;;;;13.20;8.07;;;;;;;;;;5098828;28;20455;-73
2021/10/28 05:39:33;;;;;;;20.80;8.33;;;;;;;;;;5097462;28;20490;-73
2021/10/28 05:42:01;;;;;;;10.07;7.40;;;;;;;;;;5098376;28;20447;-73
2021/10/28 05:44:31;;;;;;;13.50;9.20;;;;;;;;;;5098104;28;20447;-73
2021/10/28 05:47:02;;;;;;;19.57;10.47;;;;;;;;;;5099013;28;20455;-73
2021/10/28 05:49:32;;;;;;;16.80;9.73;;;;;;;;;;5098808;28;20456;-73
2021/10/28 05:52:00;;;;;;;10.10;7.70;;;;;;;;;;5097264;28;20458;-73
2021/10/28 05:54:30;;;;;;;15.53;9.57;;;;;;;;;;5095872;28;20452;-73
2021/10/28 05:56:58;;;;;;;13.87;9.30;;;;;;;;;;5097962;28;20452;-73
2021/10/28 05:59:27;;;;;;;11.70;9.33;;;;;;;;;;5097631;28;20470;-72
2021/10/28 06:01:55;;;;;;;14.47;8.87;;;;;;;;;;5099402;28;20447;-73
2021/10/28 06:04:25;;;;;;;16.10;9.67;;;;;;;;;;5097848;28;20723;-73
2021/10/28 06:06:53;;;;;;;20.27;9.67;;;;;;;;;;5098960;28;20458;-73
2021/10/28 06:09:21;;;;;;;17.60;10.30;;;;;;;;;;5097557;28;20455;-73
2021/10/28 06:11:51;;;;;;;18.93;11.10;;;;;;;;;;5096218;28;20448;-73
2021/10/28 06:14:23;;;;;;;20.40;12.13;;;;;;;;;;5097716;28;20452;-73
2021/10/28 06:17:03;;;;;;;18.53;9.67;;;;;;;;;;5098405;28;20481;-72
2021/10/28 06:19:36;;;;;;;19.37;11.27;;;;;;;;;;5097171;28;20459;-73
2021/10/28 06:22:09;;;;;;;15.00;9.23;;;;;;;;;;5098128;28;20479;-73
2021/10/28 06:24:37;;;;;;;17.90;9.97;;;;;;;;;;5097561;28;20448;-73
2021/10/28 06:27:05;;;;;;;14.43;10.70;;;;;;;;;;5096444;28;20452;-73
2021/10/28 06:29:33;;;;;;;15.00;9.43;;;;;;;;;;5090508;28;20441;-73
2021/10/28 06:32:01;;;;;;;14.13;10.53;;;;;;;;;;5092682;28;20487;-73
2021/10/28 06:34:37;;;;;;;13.80;9.30;;;;;;;;;;5080220;28;20497;-73
2021/10/28 06:37:08;;;;;;;17.20;11.60;;;;;;;;;;5092442;28;20782;-72
2021/10/28 06:39:36;;;;;;;15.03;10.30;;;;;;;;;;5096869;28;20452;-73
2021/10/28 06:42:05;;;;;;;14.03;10.50;;;;;;;;;;5095259;28;20770;-72
2021/10/28 06:44:35;;;;;;;15.13;9.60;;;;;;;;;;5096037;28;20876;-73
2021/10/28 06:47:05;;;;;;;14.30;9.80;;;;;;;;;;5096901;28;20466;-73
2021/10/28 06:49:38;;;;;;;17.00;11.33;;;;;;;;;;5098095;28;20871;-72
2021/10/28 06:52:10;;;;;;;15.73;9.33;;;;;;;;;;5097145;28;20659;-72
2021/10/28 06:54:41;;;;;;;19.97;11.10;;;;;;;;;;5097181;28;20463;-72
2021/10/28 07:02:43;;;;;;;19.23;11.17;;;;;;;;;;5096379;28;20419;-72
2021/10/28 07:05:12;;;;;;;15.80;10.40;;;;;;;;;;5096174;28;21079;-73
2021/10/28 07:07:47;;;;;;;18.57;11.43;;;;;;;;;;5096544;28;20454;-73
2021/10/28 07:10:17;;;;;;;19.63;11.80;;;;;;;;;;5097831;28;20455;-72
2021/10/28 07:12:52;;;;;;;16.63;11.67;;;;;;;;;;5094788;28;20831;-72
2021/10/28 07:15:24;;;;;;;15.20;11.83;;;;;;;;;;5095245;28;20538;-72
2021/10/28 07:18:14;;;;;;;17.10;11.40;;;;;;;;;;5096176;28;20444;-72
2021/10/28 07:21:01;;;;;;;16.23;10.03;;;;;;;;;;5095516;28;20520;-72
2021/10/28 07:26:49;;;;;;;13.70;10.17;;;;;;;;;;5074183;28;20997;-73
2021/10/28 07:35:28;;;;;;;15.00;11.23;;;;;;;;;;5084642;28;20432;-72
2021/10/28 07:38:33;;;;;;;14.40;10.40;;;;;;;;;;5097501;28;20872;-72
2021/10/28 08:14:56;;;;;;;14.63;9.63;;;;;;;;;;5091574;28;20505;-73
2021/10/28 08:20:16;;;;;;;12.33;8.77;;;;;;;;;;5102471;28;20482;-73
2021/10/28 08:23:00;;;;;;;12.80;9.27;;;;;;;;;;5097485;28;20735;-72
2021/10/28 08:31:01;;;;;;;16.00;9.10;;;;;;;;;;5094615;28;20439;-72
2021/10/28 08:33:29;;;;;;;11.00;7.83;;;;;;;;;;5103707;28;20466;-72
2021/10/28 08:36:07;;;;;;;13.67;7.13;;;;;;;;;;5102782;28;20456;-72
2021/10/28 08:38:35;;;;;;;12.27;9.17;;;;;;;;;;5093549;28;20554;-72
2021/10/28 08:41:08;;;;;;;9.93;8.83;;;;;;;;;;5095653;28;21079;-73
2021/10/28 08:43:40;;;;;;;9.97;7.37;;;;;;;;;;5093583;28;20882;-71
2021/10/28 08:46:10;;;;;;;11.53;7.37;;;;;;;;;;5092729;28;20526;-72
2021/10/28 08:48:43;;;;;;;10.00;7.93;;;;;;;;;;5106142;28;20455;-72
2021/10/28 08:51:21;;;;;;;9.63;8.20;;;;;;;;;;5077134;28;20469;-73
2021/10/28 08:54:09;;;;;;;14.23;7.90;;;;;;;;;;5103834;28;20466;-72
2021/10/28 08:56:54;;;;;;;8.30;6.27;;;;;;;;;;5112127;28;20738;-71
2021/10/28 08:59:31;;;;;;;8.20;7.23;;;;;;;;;;5115651;28;20728;-71
2021/10/28 09:24:37;;;;;;;10.73;5.23;;;;;;;;;;5085225;28;20905;-73
2021/10/28 09:27:13;;;;;;;7.30;4.43;;;;;;;;;;5112132;28;20455;-73
2021/10/28 09:29:50;;;;;;;7.57;6.30;;;;;;;;;;5112768;28;20468;-73
2021/10/28 09:32:27;;;;;;;6.60;5.90;;;;;;;;;;5113218;28;20442;-72
2021/10/28 09:35:13;;;;;;;6.87;5.70;;;;;;;;;;5107884;28;20486;-72
2021/10/28 09:46:36;;;;;;;5.23;4.17;;;;;;;;;;5106011;27;20443;-72
2021/10/28 09:51:56;;;;;;;5.73;4.73;;;;;;;;;;5111855;28;20529;-73
2021/10/28 09:54:46;;;;;;;6.60;3.40;;;;;;;;;;5111754;28;20447;-73
2021/10/28 09:57:51;;;;;;;6.23;3.60;;;;;;;;;;5103108;28;20770;-73
2021/10/28 10:00:34;;;;;;;4.60;3.97;;;;;;;;;;5091686;28;20995;-73
2021/10/28 10:03:08;;;;;;;6.13;3.10;;;;;;;;;;5091506;28;20576;-72
2021/10/28 10:05:40;;;;;;;4.00;3.60;;;;;;;;;;5105768;28;20446;-71
2021/10/28 10:08:08;;;;;;;5.20;3.90;;;;;;;;;;5110945;28;20467;-72
2021/10/28 10:10:49;;;;;;;10.03;3.90;;;;;;;;;;5110953;28;20457;-72
2021/10/28 10:13:29;;;;;;;6.73;3.43;;;;;;;;;;5110671;28;20443;-72
2021/10/28 10:16:00;;;;;;;5.73;3.43;;;;;;;;;;5098794;28;20446;-73
2021/10/28 10:18:29;;;;;;;3.20;2.37;;;;;;;;;;5097318;28;20528;-74
2021/10/28 10:21:03;;;;;;;5.10;4.27;;;;;;;;;;5092896;28;20837;-72
2021/10/28 10:23:48;;;;;;;5.10;3.90;;;;;;;;;;5111428;28;20486;-72
2021/10/28 10:26:36;;;;;;;7.50;4.00;;;;;;;;;;5095735;28;20940;-71
2021/10/28 11:22:05;;;;;;;3.00;1.70;;;;;;;;;;5066423;28;20562;-74
2021/10/28 11:27:47;;;;;;;5.50;3.27;;;;;;;;;;5069570;28;20899;-73
2021/10/28 12:27:58;;;;;;;8.10;3.80;;;;;;;;;;5057713;28;20728;-74
2021/10/28 12:44:51;;;;;;;4.80;2.97;;;;;;;;;;5051223;28;20476;-74
2021/10/28 12:53:34;;;;;;;6.33;3.27;;;;;;;;;;5056762;28;20449;-75
2021/10/28 13:49:59;;;;;;;3.00;2.50;;;;;;;;;;5054357;28;20463;-74
2021/10/28 15:27:58;;;;;;;4.00;2.60;;;;;;;;;;5035766;28;20442;-73
2021/10/28 15:30:46;;;;;;;7.50;3.63;;;;;;;;;;5053796;28;20462;-72
2021/10/28 15:36:11;;;;;;;10.73;4.93;;;;;;;;;;5015934;28;20434;-72
2021/10/28 15:38:49;;;;;;;6.60;4.97;;;;;;;;;;5055704;28;20495;-72
2021/10/28 15:41:53;;;;;;;5.30;3.03;;;;;;;;;;5057654;28;21040;-72
2021/10/28 15:53:17;;;;;;;4.17;3.17;;;;;;;;;;5052743;28;20849;-72
2021/10/28 16:23:34;;;;;;;8.63;6.77;;;;;;;;;;5059810;28;20420;-71
2021/10/28 16:26:03;;;;;;;9.30;6.50;;;;;;;;;;5058664;28;20493;-71
2021/10/28 16:28:32;;;;;;;13.07;5.77;;;;;;;;;;5055649;28;20480;-72
2021/10/28 16:31:03;;;;;;;7.53;5.57;;;;;;;;;;5057856;28;20462;-73
2021/10/28 16:33:35;;;;;;;8.90;6.07;;;;;;;;;;5056748;28;20445;-73
2021/10/28 16:36:10;;;;;;;7.03;4.23;;;;;;;;;;5057372;28;21064;-72
2021/10/28 16:38:38;;;;;;;12.53;4.53;;;;;;;;;;5057835;28;20452;-72
2021/10/28 16:41:13;;;;;;;12.87;6.90;;;;;;;;;;5046338;28;20464;-73
2021/10/28 16:43:50;;;;;;;7.63;5.83;;;;;;;;;;5054846;28;20476;-73
2021/10/28 16:49:07;;;;;;;11.83;6.67;;;;;;;;;;5053534;28;20485;-72
2021/10/28 16:51:42;;;;;;;14.83;8.40;;;;;;;;;;5055405;28;20486;-74
2021/10/28 16:54:11;;;;;;;10.50;6.87;;;;;;;;;;5056936;28;20461;-73
2021/10/28 16:56:41;;;;;;;9.13;6.50;;;;;;;;;;5057076;28;20453;-73
2021/10/28 16:59:10;;;;;;;8.20;5.90;;;;;;;;;;5054672;28;20484;-72
2021/10/28 17:01:39;;;;;;;10.43;6.37;;;;;;;;;;5055396;28;20717;-72
2021/10/28 17:04:09;;;;;;;9.93;5.70;;;;;;;;;;5058018;28;20997;-72
2021/10/28 17:06:38;;;;;;;15.13;8.90;;;;;;;;;;5058283;28;20485;-74
2021/10/28 17:09:08;;;;;;;12.20;9.07;;;;;;;;;;5055889;28;20513;-73
2021/10/28 17:11:37;;;;;;;17.87;11.17;;;;;;;;;;5057808;28;20438;-72
2021/10/28 17:14:08;;;;;;;19.70;10.87;;;;;;;;;;5057136;28;20437;-73
2021/10/28 17:16:39;;;;;;;13.50;9.03;;;;;;;;;;5057268;28;20613;-72
2021/10/28 17:19:08;;;;;;;18.77;11.33;;;;;;;;;;5057378;28;20555;-73
2021/10/28 17:21:38;;;;;;;19.33;9.80;;;;;;;;;;5057928;28;20449;-74
2021/10/28 17:24:21;;;;;;;14.70;8.87;;;;;;;;;;5055045;28;20467;-72
2021/10/28 17:26:51;;;;;;;13.63;7.60;;;;;;;;;;5056588;28;20771;-73
2021/10/28 17:29:21;;;;;;;14.37;9.90;;;;;;;;;;5055900;28;20515;-73
2021/10/28 17:31:55;;;;;;;12.93;8.40;;;;;;;;;;5056298;28;20457;-73
2021/10/28 17:34:24;;;;;;;17.00;9.93;;;;;;;;;;5055614;28;20520;-73
2021/10/28 17:36:57;;;;;;;14.20;7.10;;;;;;;;;;5054895;28;20718;-73
2021/10/28 17:39:27;;;;;;;10.80;8.17;;;;;;;;;;5055721;28;20457;-73
2021/10/28 17:42:00;;;;;;;18.60;11.80;;;;;;;;;;5055233;28;20461;-74
2021/10/28 17:44:41;;;;;;;12.33;8.37;;;;;;;;;;5057951;28;20488;-74
2021/10/28 17:47:11;;;;;;;18.30;10.60;;;;;;;;;;5046068;28;20477;-73
2021/10/28 17:49:42;;;;;;;28.80;22.37;;;;;;;;;;5056162;28;20453;-72
2021/10/28 17:52:12;;;;;;;12.50;8.47;;;;;;;;;;5055494;28;20453;-72
2021/10/28 17:54:40;;;;;;;10.70;7.20;;;;;;;;;;5054779;28;20504;-72
2021/10/28 17:57:10;;;;;;;12.93;8.37;;;;;;;;;;5056616;28;20869;-73
2021/10/28 17:59:49;;;;;;;;;;;;;;;;;;;;;
2021/10/28 18:02:19;;;;;;;17.60;11.27;;;;;;;;;;5056488;28;20442;-72
2021/10/28 18:05:09;;;;;;;19.40;12.07;;;;;;;;;;5059824;28;20461;-72
2021/10/28 18:07:38;;;;;;;16.03;9.70;;;;;;;;;;5034753;28;20457;-71
2021/10/28 18:10:06;;;;;;;16.17;11.37;;;;;;;;;;5056467;28;20539;-73
2021/10/28 18:12:36;;;;;;;16.30;11.73;;;;;;;;;;5057054;28;20457;-72
2021/10/28 18:15:13;;;;;;;13.47;8.90;;;;;;;;;;5058217;28;20441;-72
2021/10/28 18:17:41;;;;;;;15.07;9.17;;;;;;;;;;5055893;28;20472;-72
2021/10/28 18:20:09;;;;;;;12.00;8.77;;;;;;;;;;5055766;28;20450;-72
2021/10/28 18:22:40;;;;;;;13.07;9.80;;;;;;;;;;5055509;28;20457;-72
2021/10/28 18:25:09;;;;;;;15.20;9.67;;;;;;;;;;5055901;28;20519;-73
2021/10/28 18:27:39;;;;;;;13.90;10.07;;;;;;;;;;5056657;28;20537;-72
2021/10/28 18:30:15;;;;;;;11.93;9.40;;;;;;;;;;5054582;28;20464;-73
2021/10/28 18:32:44;;;;;;;11.73;8.70;;;;;;;;;;5034014;28;20466;-72
2021/10/28 18:35:13;;;;;;;11.77;8.53;;;;;;;;;;5043684;28;20453;-72
2021/10/28 18:37:46;;;;;;;12.17;7.90;;;;;;;;;;5054405;28;21109;-72
2021/10/28 18:40:15;;;;;;;13.43;9.47;;;;;;;;;;5055482;28;20519;-72
2021/10/28 18:42:44;;;;;;;10.40;7.40;;;;;;;;;;5055084;28;20460;-73
2021/10/28 18:45:15;;;;;;;10.80;8.13;;;;;;;;;;5055991;28;20453;-71
2021/10/28 18:47:44;;;;;;;15.50;11.60;;;;;;;;;;5057262;28;20441;-72
2021/10/28 18:50:14;;;;;;;12.67;8.43;;;;;;;;;;5055772;28;20511;-72
2021/10/28 18:52:43;;;;;;;14.60;8.07;;;;;;;;;;5055833;28;21027;-71
2021/10/28 18:55:14;;;;;;;15.77;8.97;;;;;;;;;;5054689;28;20523;-71
2021/10/28 18:57:42;;;;;;;13.93;8.13;;;;;;;;;;5057359;28;20510;-71
2021/10/28 19:00:11;;;;;;;11.30;8.63;;;;;;;;;;5055736;28;20979;-71
2021/10/28 19:02:41;;;;;;;10.10;7.63;;;;;;;;;;5054552;28;20485;-71
2021/10/28 19:05:10;;;;;;;12.87;7.60;;;;;;;;;;5055626;28;20449;-71
2021/10/28 19:07:38;;;;;;;12.67;8.20;;;;;;;;;;5058109;28;20485;-71
2021/10/28 19:10:07;;;;;;;11.37;7.60;;;;;;;;;;5057899;28;20449;-70
2021/10/28 19:12:35;;;;;;;9.80;6.90;;;;;;;;;;5057796;28;20453;-71
2021/10/28 19:15:04;;;;;;;11.70;8.40;;;;;;;;;;5057974;28;20453;-70
2021/10/28 19:17:32;;;;;;;12.53;8.50;;;;;;;;;;5058685;28;20508;-70
2021/10/28 19:20:08;;;;;;;11.57;7.53;;;;;;;;;;5058873;28;20449;-70
2021/10/28 19:22:36;;;;;;;10.70;8.40;;;;;;;;;;5059654;28;20464;-70
2021/10/28 19:25:06;;;;;;;16.10;8.67;;;;;;;;;;5059829;28;20445;-70
2021/10/28 19:27:35;;;;;;;11.90;8.63;;;;;;;;;;5059016;28;20497;-70
2021/10/28 19:30:09;;;;;;;12.30;7.70;;;;;;;;;;5058576;28;20943;-70
2021/10/28 19:32:39;;;;;;;10.73;7.00;;;;;;;;;;5057624;28;20578;-71
2021/10/28 19:35:22;;;;;;;9.30;7.77;;;;;;;;;;5058205;28;20481;-70
2021/10/28 19:37:57;;;;;;;13.20;8.57;;;;;;;;;;5053909;28;20445;-70
2021/10/28 19:40:48;;;;;;;9.77;6.60;;;;;;;;;;5058041;28;20861;-71
2021/10/28 19:46:13;;;;;;;11.50;8.03;;;;;;;;;;5057692;28;20638;-71
2021/10/28 19:48:42;;;;;;;14.40;8.40;;;;;;;;;;5057170;28;20453;-71
2021/10/28 19:51:12;;;;;;;11.23;7.83;;;;;;;;;;5057693;28;20522;-71
2021/10/28 19:53:42;;;;;;;13.90;8.73;;;;;;;;;;5058416;28;20457;-72
2021/10/28 19:56:13;;;;;;;11.93;9.50;;;;;;;;;;5057962;28;20489;-71
2021/10/28 19:58:44;;;;;;;11.10;7.53;;;;;;;;;;5058732;28;20461;-71
2021/10/28 20:01:24;;;;;;;15.93;8.60;;;;;;;;;;5059677;28;20453;-71
2021/10/28 20:06:52;;;;;;;11.27;7.73;;;;;;;;;;5052142;28;20473;-72
2021/10/28 20:20:30;;;;;;;14.37;9.00;;;;;;;;;;5058911;28;20420;-70
2021/10/28 20:23:00;;;;;;;14.10;8.77;;;;;;;;;;5058886;28;20453;-71
2021/10/28 20:25:29;;;;;;;16.60;9.80;;;;;;;;;;5059427;28;20445;-72
2021/10/28 20:27:58;;;;;;;12.63;9.13;;;;;;;;;;5058090;28;20496;-71
2021/10/28 20:30:28;;;;;;;10.40;8.40;;;;;;;;;;5057527;28;20449;-71
2021/10/28 20:32:56;;;;;;;25.33;11.43;;;;;;;;;;5056973;28;20748;-71
2021/10/28 20:35:53;;;;;;;11.60;9.40;;;;;;;;;;5058678;28;20729;-71
2021/10/28 20:38:23;;;;;;;11.30;8.47;;;;;;;;;;5059566;28;20524;-71
2021/10/28 20:40:51;;;;;;;13.57;8.43;;;;;;;;;;5056878;28;20776;-71
2021/10/28 20:43:19;;;;;;;17.33;11.20;;;;;;;;;;5057931;28;20501;-70
2021/10/28 20:45:47;;;;;;;17.93;9.00;;;;;;;;;;5072433;28;20872;-71
2021/10/28 20:48:15;;;;;;;12.70;10.17;;;;;;;;;;5076862;28;20538;-74
2021/10/28 20:50:44;;;;;;;10.30;9.20;;;;;;;;;;5046440;28;20762;-71
2021/10/28 20:53:12;;;;;;;13.67;9.77;;;;;;;;;;5057800;28;20748;-71
2021/10/28 20:55:41;;;;;;;14.23;9.47;;;;;;;;;;5057293;28;20460;-71
2021/10/28 20:58:12;;;;;;;13.00;9.10;;;;;;;;;;5040664;28;20872;-71
2021/10/28 21:00:40;;;;;;;17.63;9.47;;;;;;;;;;5037869;28;20886;-71
2021/10/28 21:03:08;;;;;;;14.00;10.43;;;;;;;;;;5037361;28;20457;-71
2021/10/28 21:05:37;;;;;;;14.30;10.17;;;;;;;;;;5037614;28;20543;-72
2021/10/28 21:08:05;;;;;;;11.90;9.20;;;;;;;;;;5037906;28;20913;-71
2021/10/28 21:10:34;;;;;;;19.70;10.37;;;;;;;;;;5034696;28;20825;-71
2021/10/28 21:13:05;;;;;;;15.23;9.90;;;;;;;;;;5037748;28;20516;-71
2021/10/28 21:15:33;;;;;;;13.87;9.37;;;;;;;;;;5037686;28;20453;-71
2021/10/28 21:18:01;;;;;;;18.50;10.60;;;;;;;;;;5037247;28;20454;-72
2021/10/28 21:20:29;;;;;;;15.20;9.97;;;;;;;;;;5048040;28;20725;-72
2021/10/28 21:22:57;;;;;;;13.53;9.77;;;;;;;;;;5057636;28;20465;-71
2021/10/28 21:25:26;;;;;;;13.93;9.87;;;;;;;;;;5058327;28;20457;-71
2021/10/28 21:27:55;;;;;;;19.47;9.97;;;;;;;;;;5051973;28;20805;-71
2021/10/28 21:30:25;;;;;;;15.30;9.13;;;;;;;;;;5037342;28;20461;-71
2021/10/28 21:32:56;;;;;;;15.40;8.57;;;;;;;;;;5037259;28;20863;-72
2021/10/28 21:35:25;;;;;;;14.70;8.20;;;;;;;;;;5037032;28;20454;-71
2021/10/28 21:37:53;;;;;;;12.17;9.33;;;;;;;;;;5037206;28;20474;-71
2021/10/28 21:40:23;;;;;;;15.47;8.93;;;;;;;;;;5035964;28;20474;-72
2021/10/28 21:42:52;;;;;;;17.07;9.67;;;;;;;;;;5037355;28;20553;-71
2021/10/28 21:45:20;;;;;;;13.83;9.77;;;;;;;;;;5037641;28;20439;-71
2021/10/28 21:47:52;;;;;;;13.77;10.17;;;;;;;;;;5037327;28;20566;-71
2021/10/28 21:50:22;;;;;;;10.30;8.70;;;;;;;;;;5060511;28;20464;-72
2021/10/28 21:52:52;;;;;;;15.13;9.40;;;;;;;;;;5077059;28;20483;-72
2021/10/28 21:55:39;;;;;;;15.10;9.47;;;;;;;;;;5076936;28;20914;-72
2021/10/28 21:58:14;;;;;;;12.70;8.80;;;;;;;;;;5077706;28;20860;-72
2021/10/28 22:00:51;;;;;;;12.70;8.63;;;;;;;;;;5077015;28;20460;-72
2021/10/28 22:25:48;;;;;;;10.90;8.00;;;;;;;;;;5076864;28;20420;-72
2021/10/28 22:28:24;;;;;;;12.00;7.97;;;;;;;;;;5059539;28;20499;-71
2021/10/28 22:30:52;;;;;;;11.90;9.90;;;;;;;;;;5077401;28;20448;-71
2021/10/28 22:33:20;;;;;;;11.27;7.80;;;;;;;;;;5076897;28;20473;-71
2021/10/28 22:35:52;;;;;;;12.00;7.77;;;;;;;;;;5076366;28;20750;-72
2021/10/28 22:38:23;;;;;;;14.60;10.03;;;;;;;;;;5075785;28;20452;-72
2021/10/28 22:40:52;;;;;;;13.30;8.90;;;;;;;;;;5076064;28;20857;-72
2021/10/28 22:43:23;;;;;;;11.37;8.10;;;;;;;;;;5076526;28;20460;-72
2021/10/28 22:45:52;;;;;;;15.77;10.23;;;;;;;;;;5076722;28;20483;-73
2021/10/28 22:48:24;;;;;;;12.80;8.57;;;;;;;;;;5076437;28;20528;-72
2021/10/28 22:50:56;;;;;;;14.30;9.10;;;;;;;;;;5061168;28;20457;-72
2021/10/28 22:53:27;;;;;;;14.00;8.90;;;;;;;;;;5056273;28;21036;-72
2021/10/28 22:55:56;;;;;;;12.30;7.37;;;;;;;;;;5056251;28;20449;-72
2021/10/28 22:58:27;;;;;;;9.80;8.10;;;;;;;;;;5055461;28;20449;-72
2021/10/28 23:01:04;;;;;;;14.30;8.23;;;;;;;;;;5055296;28;20453;-72
2021/10/28 23:03:50;;;;;;;10.63;7.47;;;;;;;;;;5055825;28;20500;-72
2021/10/28 23:06:43;;;;;;;10.87;7.17;;;;;;;;;;5055333;28;20514;-73
2021/10/28 23:23:02;;;;;;;8.80;7.70;;;;;;;;;;5055870;28;20849;-72
2021/10/28 23:25:30;;;;;;;14.43;8.83;;;;;;;;;;5055806;28;20445;-71
2021/10/28 23:28:00;;;;;;;10.17;7.20;;;;;;;;;;5056527;28;20495;-72
2021/10/28 23:30:28;;;;;;;10.97;8.57;;;;;;;;;;5056218;28;20493;-72
2021/10/28 23:32:58;;;;;;;10.67;7.10;;;;;;;;;;5055761;28;20492;-72
2021/10/28 23:35:29;;;;;;;11.00;8.50;;;;;;;;;;5056296;28;20918;-71
2021/10/28 23:37:57;;;;;;;10.97;8.80;;;;;;;;;;5056137;28;20548;-70
2021/10/28 23:40:27;;;;;;;11.87;7.77;;;;;;;;;;5055869;28;20461;-71
2021/10/28 23:42:55;;;;;;;10.53;8.30;;;;;;;;;;5056377;28;20453;-71
2021/10/28 23:45:23;;;;;;;11.27;7.40;;;;;;;;;;5056042;28;20543;-71